This is the latest recevied weather packets stored in our database for station/object N5GAH-13. If no packets are shown the sender has not sent any weather packets the latest 10 day(s).
| Time | Temp. | Humidity | Pressure | Rain* | Wind** | Luminosity | Snow |
|---|---|---|---|---|---|---|---|
| 1777276410 | 23.33° C | 22% | 1012.4 hPa | 0 mm | - | - | - |
| 1777274610 | 24.44° C | 20% | 1012.4 hPa | 0 mm | - | - | - |
| 1777271010 | 26.11° C | 18% | 1012.1 hPa | 0 mm | - | - | - |
| 1777267410 | 26.67° C | 17% | 1011.8 hPa | 0 mm | - | - | - |
| 1777265610 | 27.22° C | 17% | 1011.4 hPa | 0 mm | - | - | - |
| 1777263810 | 27.22° C | 16% | 1010.9 hPa | 0 mm | - | - | - |
| 1777262010 | 27.78° C | 17% | 1010.7 hPa | 0 mm | - | - | - |
| 1777258411 | 29.44° C | 15% | 1010.1 hPa | 0 mm | - | - | - |
| 1777254810 | 30.56° C | 14% | 1008.8 hPa | 0 mm | - | - | - |
| 1777253010 | 31.11° C | 13% | 1008.5 hPa | 0 mm | - | - | - |
| 1777251210 | 32.22° C | 12% | 1008.4 hPa | 0 mm | - | - | - |
| 1777249410 | 32.78° C | 12% | 1008.3 hPa | 0 mm | - | - | - |
| 1777247610 | 33.33° C | 11% | 1008.5 hPa | 0 mm | - | - | - |
| 1777245810 | 33.89° C | 11% | 1008.4 hPa | 0 mm | - | - | - |
| 1777244010 | 34.44° C | 12% | 1008.2 hPa | 0 mm | - | - | - |
| 1777240410 | 34.44° C | 13% | 1008.8 hPa | 0 mm | - | - | - |
| 1777238610 | 35.56° C | 12% | 1009.3 hPa | 0 mm | - | - | - |
| 1777235010 | 34.44° C | 13% | 1010.6 hPa | 0 mm | - | - | - |
| 1777233210 | 34.44° C | 13% | 1011.2 hPa | 0 mm | - | - | - |
| 1777231410 | 33.89° C | 13% | 1011.4 hPa | 0 mm | - | - | - |
| 1777229610 | 33.89° C | 13% | 1012 hPa | 0 mm | - | - | - |
| 1777226010 | 32.22° C | 14% | 1013.4 hPa | 0 mm | - | - | - |
| 1777224210 | 32.22° C | 15% | 1013.9 hPa | 0 mm | - | - | - |
| 1777222410 | 31.11° C | 16% | 1014.1 hPa | 0 mm | - | - | - |
| 1777220610 | 30° C | 16% | 1014.4 hPa | 0 mm | - | - | - |
* Rain latest hour (hover to see other rain measurements)
** Current wind speed in m/s (hover to see current wind gust speed)